aviador You're here:

NCRG Decoded Metar

AVARUA in COOK ISLANDS
Report Time2017-06-25 20:00:00
UTC Time2017-06-25 20:48:37
Flight Rules vfr VFR
Wind020° at 08 kt
W.Decomp.*RWY 08: 2.2 kt HW 7.7 kt LCW
W.Rank020° ranks 16
Current wind is below 020° avg. (9.0)
Visibility9999 m
Phenomena:N/A
Clouds:Few 027 Hf
Expected CloudBase > 2,000 ft AGL from Temp-Dew spread
CeilingNone
Temp25°C (ISA +10)
Dew Point20°C (74% RH)
QNH1015 hPa
Density Alt1,427 ft
Elevation23 ft
Report Wrong Elevation
Raw Report
METAR NCRG 252000Z 02008KT 9999 FEW027 25/20 Q1015=

Extra information for NCRG:More info

Metar Taf Metar & Taf Last 4 Metars F.Rules Stats Wind Profile Meteogram Temp Stats Airport Information Weather charts Add Link Nearby VenuesMetar ALERT Operation Metar Decoded Social comments